Skip to main content.

Nearby METAR Reports

 

KJYR - York, Nebraska, USA
Distance from station: NW 27mi, 43km
Updated: Wed, 11-Dec-2019 7:35am CST
Clear
Clear
 Wind from NNE
Wind: NNE 13 mph , 20 km/h
Temperature: 23°F , -5°C
Wind Chill: 11°F , -12°C
Dew Point: 21°F , -6°C
Humidity: 93%
Barometer: 30.30 inHg , 1026.1 hPa
Clouds: Clear
Visibility: 10 miles , 16 km
2019/12/11 13:35 KJYR 111335Z AUTO 02011KT 10SM CLR M05/M06 A3030 RMK AO2
KLNK - Lincoln, Nebraska, USA
Distance from station: ENE 27mi, 44km
Updated: Wed, 11-Dec-2019 6:54am CST
Clear
Clear
 Wind from calm
Wind: Calm
Temperature: 19°F , -7°C
Dew Point: 16°F , -9°C
Humidity: 86%
Barometer: 30.32 inHg , 1026.8 hPa
Clouds: Clear
Visibility: 10 miles , 16 km
2019/12/11 12:54 KLNK 111254Z 00000KT 10SM CLR M07/M09 A3032 RMK AO2 SLP286 T10671094 $
 
KBIE - Beatrice Municip, Nebraska, USA
Distance from station: SE 36mi, 58km
Updated: Wed, 11-Dec-2019 7:35am CST
Clear
Clear
 Wind from calm
Wind: Calm
Temperature: 18°F , -8°C
Dew Point: 14°F , -10°C
Humidity: 86%
Barometer: 30.32 inHg , 1026.8 hPa
Clouds: Clear
Visibility: 10 miles , 16 km
2019/12/11 13:35 KBIE 111335Z AUTO 00000KT 10SM CLR M08/M10 A3032 RMK AO2 T10771096
KHJH - Hebron Muni, Nebraska, USA
Distance from station: SSW 40mi, 64km
Updated: Wed, 11-Dec-2019 7:35am CST
Clear
Clear
 Wind from calm
Wind: Calm
Temperature: 19°F , -7°C
Dew Point: 18°F , -8°C
Humidity: 93%
Barometer: 30.31 inHg , 1026.4 hPa
Clouds: Clear
Visibility: 10 miles , 16 km
2019/12/11 13:35 KHJH 111335Z AUTO 00000KT 10SM CLR M07/M08 A3031 RMK AO2 T10671085
 
KAUH - Aurora, Nebraska, USA
Distance from station: WNW 44mi, 70km
Updated: Wed, 11-Dec-2019 7:35am CST
Clear
Clear
 Wind from NNE
Wind: NNE 14 mph , 22 km/h
Temperature: 25°F , -4°C
Wind Chill: 13°F , -11°C
Dew Point: 21°F , -6°C
Humidity: 86%
Barometer: 30.29 inHg , 1025.7 hPa
Clouds: Clear
Visibility: 10 miles , 16 km
2019/12/11 13:35 KAUH 111335Z AUTO 03012KT 10SM CLR M04/M06 A3029 RMK AO2 T10431059
KAHQ - Wahoo, Nebraska, USA
Distance from station: NE 51mi, 82km
Updated: Wed, 11-Dec-2019 7:35am CST
Clear
Clear
 Wind from N
Wind: N 7 mph , 11 km/h
Temperature: 21°F , -6°C
Wind Chill: 12°F , -11°C
Dew Point: 18°F , -8°C
Humidity: 86%
Barometer: 30.35 inHg , 1027.8 hPa
Clouds: Clear
Visibility: 10 miles , 16 km
2019/12/11 13:35 KAHQ 111335Z AUTO 36006KT 10SM CLR M06/M08 A3035 RMK AO2 T10611083
 
KOLU - Columbus Muni, Nebraska, USA
Distance from station: N 55mi, 88km
Updated: Wed, 11-Dec-2019 6:56am CST
Clear
Clear
 Wind from NNE
Wind: NNE 9 mph , 15 km/h
Temperature: 19°F , -7°C
Wind Chill: 8°F , -13°C
Dew Point: 16°F , -9°C
Humidity: 86%
Barometer: 30.34 inHg , 1027.4 hPa
Clouds: Clear
Visibility: 10 miles , 16 km
2019/12/11 12:56 KOLU 111256Z AUTO 03008KT 10SM CLR M07/M09 A3034 RMK AO2 SLP301 T10721094 FZRANO
KGRI - Grand Island, Nebraska, USA
Distance from station: WNW 61mi, 99km
Updated: Wed, 11-Dec-2019 7:53am CST
Clear
Clear
 Wind from NE
Wind: NE 16 mph , 26 km/h
Temperature: 21°F , -6°C
Wind Chill: 7°F , -14°C
Dew Point: 18°F , -8°C
Humidity: 86%
Barometer: 30.30 inHg , 1026.1 hPa
Clouds: Clear
Visibility: 10 miles , 16 km
2019/12/11 13:53 KGRI 111353Z 04014KT 10SM CLR M06/M08 A3030 RMK AO2 SLP292 T10561083
 
KHSI - Hastings, Nebraska, USA
Distance from station: W 64mi, 103km
Updated: Wed, 11-Dec-2019 7:53am CST
Clear
Clear
 Wind from N
Wind: N 7 mph , 11 km/h
Temperature: 19°F , -7°C
Wind Chill: 10°F , -12°C
Dew Point: 16°F , -9°C
Humidity: 86%
Barometer: 30.28 inHg , 1025.4 hPa
Clouds: Clear
Visibility: 10 miles , 16 km
2019/12/11 13:53 KHSI 111353Z AUTO 01006KT 10SM CLR M07/M09 A3028 RMK AO2 SLP283 T10671089
KFET - Fremont Muni Arp, Nebraska, USA
Distance from station: NNE 66mi, 106km
Updated: Wed, 11-Dec-2019 7:35am CST
Clear
Clear
 Wind from N
Wind: N 9 mph , 15 km/h
Temperature: 21°F , -6°C
Wind Chill: 11°F , -12°C
Dew Point: 16°F , -9°C
Humidity: 80%
Barometer: 30.35 inHg , 1027.8 hPa
Clouds: Clear
Visibility: 10 miles , 16 km
2019/12/11 13:35 KFET 111335Z AUTO 01008KT 10SM CLR M06/M09 A3035 RMK AO2 T10611087
 
KMLE - Omaha/Millard, Nebraska, USA
Distance from station: NE 69mi, 110km
Updated: Wed, 11-Dec-2019 7:35am CST
Clear
Clear
 Wind from N
Wind: N 6 mph , 9 km/h
Temperature: 25°F , -4°C
Wind Chill: 18°F , -8°C
Dew Point: 18°F , -8°C
Humidity: 74%
Barometer: 30.35 inHg , 1027.8 hPa
Clouds: Clear
Visibility: 10 miles , 16 km
2019/12/11 13:35 KMLE 111335Z AUTO 35005KT 10SM CLR M04/M08 A3035 RMK AO2 T10411084
KPMV - Plattsmouth Muni, Nebraska, USA
Distance from station: ENE 71mi, 114km
Updated: Wed, 11-Dec-2019 7:35am CST
Clear
Clear
 Wind from NNW
Wind: NNW 7 mph , 11 km/h
Temperature: 23°F , -5°C
Wind Chill: 15°F , -9°C
Dew Point: 19°F , -7°C
Humidity: 86%
Barometer: 30.33 inHg , 1027.1 hPa
Clouds: Clear
Visibility: 10 miles , 16 km
2019/12/11 13:35 KPMV 111335Z AUTO 33006KT 10SM CLR M05/M07 A3033 RMK AO2 T10531070
 
KAFK - Nebraska City, Nebraska, USA
Distance from station: E 72mi, 116km
Updated: Wed, 11-Dec-2019 7:35am CST
Clear
Clear
 Wind from W
Wind: W 7 mph , 11 km/h
Temperature: 25°F , -4°C
Wind Chill: 17°F , -8°C
Dew Point: 19°F , -7°C
Humidity: 80%
Barometer: 30.32 inHg , 1026.8 hPa
Clouds: Clear
Visibility: 10 miles , 16 km
2019/12/11 13:35 KAFK 111335Z AUTO 27006KT 10SM CLR M04/M07 A3032 RMK AO2 T10451075
KOFF - Offutt Afb/Belle, Nebraska, USA
Distance from station: ENE 75mi, 121km
Updated: Wed, 11-Dec-2019 6:56am CST
Clear
Clear
 Wind from NW
Wind: NW 5 mph , 7 km/h
Temperature: 23°F , -5°C
Wind Chill: 17°F , -8°C
Dew Point: 18°F , -8°C
Humidity: 80%
Barometer: 30.33 inHg , 1027.1 hPa
Clouds: Clear
Visibility: 10 miles , 16 km
2019/12/11 12:56 KOFF 111256Z 31004KT 10SM CLR M05/M08 A3033 RMK AO2A SLP296 RVRNO $
 
KBTA - Blair Muni, Nebraska, USA
Distance from station: NE 78mi, 125km
Updated: Wed, 11-Dec-2019 7:35am CST
Clear
Clear
 Wind from N
Wind: N 10 mph , 17 km/h
Temperature: 21°F , -6°C
Wind Chill: 10°F , -12°C
Dew Point: 16°F , -9°C
Humidity: 80%
Barometer: 30.32 inHg , 1026.8 hPa
Clouds: Clear
Visibility: 10 miles , 16 km
2019/12/11 13:35 KBTA 111335Z AUTO 36009KT 10SM CLR M06/M09 A3032 RMK AO2 T10651086
KCNK - Concordia, Kansas, USA
Distance from station: SSW 80mi, 129km
Updated: Wed, 11-Dec-2019 6:55am CST
Clear
Clear
 Wind from SW
Wind: SW 8 mph , 13 km/h, Gust: 18 mph , 30 km/h
Temperature: 27°F , -3°C
Wind Chill: 19°F , -7°C
Dew Point: 18°F , -8°C
Humidity: 69%
Barometer: 30.27 inHg , 1025.1 hPa
Clouds: Clear
Visibility: 10 miles , 16 km
2019/12/11 12:55 KCNK 111255Z AUTO 23007G16KT 10SM CLR M03/M08 A3027 RMK AO2 SLP267 T10281078
 
KOMA - Omaha/Eppley, Nebraska, USA
Distance from station: NE 82mi, 133km
Updated: Wed, 11-Dec-2019 7:52am CST
Few Clouds
Few Clouds
 Wind from N
Wind: N 10 mph , 17 km/h
Temperature: 21°F , -6°C
Wind Chill: 10°F , -12°C
Dew Point: 18°F , -8°C
Humidity: 86%
Barometer: 30.36 inHg , 1028.1 hPa
Clouds: Few Clouds
Visibility: 10 miles , 16 km
Cloud details: Few Clouds 1700 ft
2019/12/11 13:52 KOMA 111352Z 01009KT 10SM FEW017 M06/M08 A3036 RMK AO2 SLP297 T10561083
KBVN - Albion Muni, Nebraska, USA
Distance from station: NNW 86mi, 138km
Updated: Wed, 11-Dec-2019 7:35am CST
Clear
Clear
 Wind from calm
Wind: Calm
Temperature: 18°F , -8°C
Dew Point: 14°F , -10°C
Humidity: 86%
Barometer: 30.32 inHg , 1026.8 hPa
Clouds: Clear
Visibility: 10 miles , 16 km
2019/12/11 13:35 KBVN 111335Z AUTO 00000KT 10SM CLR M08/M10 A3032 RMK AO2 T10851102
 
KCBF - Council Bluffs, Iowa, USA
Distance from station: ENE 87mi, 139km
Updated: Wed, 11-Dec-2019 7:35am CST
Partly Cloudy
Partly Cloudy
 Wind from N
Wind: N 13 mph , 20 km/h
Temperature: 23°F , -5°C
Wind Chill: 11°F , -12°C
Dew Point: 21°F , -6°C
Humidity: 93%
Barometer: 30.31 inHg , 1026.4 hPa
Clouds: Partly Cloudy
Visibility: 10 miles , 16 km
Cloud details: Partly Cloudy 1600 ft
2019/12/11 13:35 KCBF 111335Z AUTO 01011KT 10SM SCT016 M05/M06 A3031 RMK AO2
KOFK - Norfolk, Nebraska, USA
Distance from station: N 92mi, 148km
Updated: Wed, 11-Dec-2019 6:56am CST
Clear
Clear
 Wind from N
Wind: N 13 mph , 20 km/h
Temperature: 18°F , -8°C
Wind Chill: 5°F , -15°C
Dew Point: 10°F , -12°C
Humidity: 73%
Barometer: 30.32 inHg , 1026.8 hPa
Clouds: Clear
Visibility: 10 miles , 16 km
2019/12/11 12:56 KOFK 111256Z AUTO 01011KT 10SM CLR M08/M12 A3032 RMK AO2 SLP300 T10831117

Metar display script from Saratoga-Weather.org